CheckWX is a tool to help pilots better visualize weather data.  It is not intended as a substitute for an official pre-flight weather briefing.

06:07:40 UTC

DTTA METAR
Tunis Carthage International Airport
Tunis, Tunisia
Current

38 mins ago

DTTA 230530Z 00000KT 8000 FEW023 13/11 Q1004
Observed
Apr-23 @ 05:30 UTC
Visibility
7,998 meters
Flight Rules
MVFR
Cloud Levels
  • Few at 2,300' AGL
Temperature
13°C / 55°F
Dewpoint
11°C / 52°F
Humidity
88%
Altimeter
29.65" Hg
Pressure
1003.92 hPa
Previous

1 hour ago

DTTA 230500Z 00000KT 8000 FEW023 12/11 Q1004
Observed
Apr-23 @ 05:00 UTC
Visibility
7,998 meters
Flight Rules
MVFR
Cloud Levels
  • Few at 2,300' AGL
Temperature
12°C / 54°F
Dewpoint
11°C / 52°F
Humidity
94%
Altimeter
29.65" Hg
Pressure
1003.92 hPa
Previous

2 hours ago

DTTA 230430Z VRB02KT 8000 FEW023 14/12 Q1003
Observed
Apr-23 @ 04:30 UTC
Wind
  • Variable at 2 KTS
Visibility
7,998 meters
Flight Rules
MVFR
Cloud Levels
  • Few at 2,300' AGL
Temperature
14°C / 57°F
Dewpoint
12°C / 54°F
Humidity
88%
Altimeter
29.62" Hg
Pressure
1002.92 hPa